Portada
METAR-TAF:

METAR-TAF

Aeroports :

Agen, França

latitud: 44-11N, longitud: 000-36E, altitud: 61 m

Observació

L'informe es va fer fa 23 minuts, a les 06:00 UTC
Vent 3 kt del Oest/Nord-Oest
Temperatura 7°C
Humitat 93%
Pressió 1014 hPa
Visibilitat: 7000 m
Cel cobert a una alçada de 500 ft

METAR: LFBA 140600Z AUTO 29003KT 7000 OVC005 07/06 Q1014 TEMPO 3000 BR

Hora: 07:23 (06:23 UTC)

Pronòstic

L'informe es va fer fa 1 hora i 23 minuts, a les 05:00 UTC
Pronòstic vàlid del 14 a les 06 UTC al 14 a les 15 UTC
Vent 7 kt del Oest/Nord-Oest
Visibilitat: 7000 m
Cel cobert a una alçada de 600 ft
Temporalment
l' 14 a les 06 UTC al 14 a les 11 UTC
Visibilitat: 3000 m
Cel cobert a una alçada de 300 ft
boirina
Evolucionant progressivament
l' 14 a les 13 UTC al 14 a les 15 UTC
Cel ennuvolat a una alçada de 1200 ft

TAF: LFBA 140500Z 1406/1415 30007KT 7000 OVC006 TEMPO 1406/1411 3000 BR OVC003 BECMG 1413/1415 BKN012

Observacions i pronòstics meteorològics de més de 4000 aeroports (METAR i TAF).

Les estacions disponibles són els punts grocs i vermells al mapa.

Posi el ratolí al punt desitjat per veure el nom de l'estació.

Feu clic per veure les observacions i els pronòstics meteorològics.

Per canviar el mapa: feu clic els botons verds amb una creu de color negre per apropar; al botó verd amb un guió per allunyar la imatge; o en les fletxes verdes per a mapes adjacents.


METAR-TAF: